windsock image

Welcome to Bigfield Strip.

anemometer image
     

 Help for dials.  
 
Local Met:

Wind:   
10 Min average:  
174 ° / 1.0 kts (0.0)
178° / 2.6

Temperature:  
12.0°C C
Dew Point:  
10.2°C C
QNH:  
Trend:  
1019.5 hpa mb
-0.3hPa/hr
BigField Strip. This image updates approximately every minute, it can have a two minute delay.  
 

Humidity:  
89 %
Sunrise:   5:43 AMz
Sunset:   5:50 PMz
Updated:  
  UTC
 
   More met info, trends, radar, history etc. available here   

LUTON Metar   EGGW 090450Z AUTO 20004KT 9999 BKN036 11/10 Q1019
 
  TAF   Luton Airport , United Kingdom (EGGW) 51-52N 000-22W Sep 13, 2017 - 11:50 AM EDT / 2017.09.13 1550 UTC Wind: from the W (280 degrees) at 14 MPH (12 KT):0 Visibility: greater than 7 mile(s):0 Sky conditions: mostly clear Weather: Cumulonimbus clouds observed Temperature: 53 F (12 C) Dew Point: 46 F (8 C) Relative Humidity: 76% Pressure (altimeter): 29.50 in. Hg (0999 hPa) ob: EGGW 131550Z 28012KT 9999 FEW041CB 12/08 Q0999 cycle: 16
 
BENSON Metar   EGUB 090450Z AUTO 16003KT 9999 // BKN039/// BKN050/// 11/10 Q1019
 
  TAF   Benson, United Kingdom (EGUB) 51-37N 001-05W 0M Sep 13, 2017 - 11:50 AM EDT / 2017.09.13 1550 UTC Wind: from the WNW (300 degrees) at 9 MPH (8 KT):0 Visibility: greater than 7 mile(s):0 Sky conditions: partly cloudy Weather: showers in the vicinity; Towering cumulus clouds observed Temperature: 55 F (13 C) Dew Point: 44 F (7 C) Relative Humidity: 66% Pressure (altimeter): 29.53 in. Hg (1000 hPa) ob: EGUB 131550Z 30008KT 9999 VCSH FEW032TCU SCT044 13/07 Q1000 BLU NOSIG cycle: 16
 
Big Field view 1 icon   Big Field view 2 icon   Big Field view 3 icon   Chart AL3a in PDF icon   Chart AL3a in Word icon

WARNING:
This information is provided by the Airstrip unofficial weather station, DO NOT depend on the data provided here for any purpose.
This page is updated for latest Metars & TAF's every 15 minutes. Page designed for a minimum browser size of 1024x768.
© Copyright 2017 BigField Strip. This page auto generated 05:26 UTC - 09/10/2017   Contact Us
Valid HTML 4.01 Transitional     Windows uptime: 9 Days 11 Hours 24 Minutes 6 Seconds    WD started: 6:08 pm 29/09/17    Free memory: 1410MB     Valid CSS!